createdAt,value
2023-03-02T00:00:48.076Z,110
2023-03-02T00:01:49.143Z,111
2023-03-02T00:02:50.235Z,110
2023-03-02T00:03:51.250Z,111
2023-03-02T00:04:52.218Z,111
2023-03-02T00:05:53.158Z,112
2023-03-02T00:06:54.221Z,110
2023-03-02T00:07:55.164Z,110
2023-03-02T00:08:56.220Z,115
2023-03-02T00:09:57.223Z,116
2023-03-02T00:10:58.279Z,117
2023-03-02T00:11:59.179Z,116
2023-03-02T00:13:00.274Z,116
2023-03-02T00:14:01.199Z,116
2023-03-02T00:15:02.199Z,117
2023-03-02T00:16:03.265Z,117
2023-03-02T00:17:04.291Z,116
2023-03-02T00:18:05.290Z,117
2023-03-02T00:19:06.293Z,119
2023-03-02T00:20:07.259Z,120
2023-03-02T00:21:08.187Z,119
2023-03-02T00:22:10.801Z,118
2023-03-02T00:23:10.259Z,118
2023-03-02T00:24:11.240Z,122
2023-03-02T00:25:12.182Z,122
2023-03-02T00:26:13.199Z,122
2023-03-02T00:27:14.246Z,126
2023-03-02T00:28:15.243Z,124
2023-03-02T00:29:16.218Z,121
2023-03-02T00:30:17.229Z,118
2023-03-02T00:31:18.314Z,116
2023-03-02T00:32:19.202Z,116
2023-03-02T00:33:20.242Z,118
2023-03-02T00:34:21.317Z,117
2023-03-02T00:35:22.239Z,119
2023-03-02T00:36:23.257Z,118
2023-03-02T00:37:24.257Z,119
2023-03-02T00:38:25.258Z,122
2023-03-02T00:39:26.217Z,121
2023-03-02T00:40:27.198Z,118
2023-03-02T00:41:28.200Z,122
2023-03-02T00:42:29.216Z,122
2023-03-02T00:43:30.270Z,124
2023-03-02T00:44:31.217Z,124
2023-03-02T00:45:32.177Z,127
2023-03-02T00:46:33.532Z,129
2023-03-02T00:47:34.216Z,129
2023-03-02T00:48:35.217Z,133
2023-03-02T00:49:36.200Z,136
2023-03-02T00:50:37.237Z,137
2023-03-02T00:51:38.218Z,135
2023-03-02T00:52:39.216Z,138
2023-03-02T00:53:40.254Z,137
2023-03-02T00:54:41.196Z,146
2023-03-02T00:55:42.199Z,149
2023-03-02T00:56:43.272Z,149
2023-03-02T00:57:44.258Z,145
2023-03-02T00:58:45.276Z,143
2023-03-02T00:59:46.204Z,139
2023-03-02T01:00:47.257Z,139
2023-03-02T01:01:48.202Z,140
2023-03-02T01:02:49.287Z,141
2023-03-02T01:03:50.224Z,140
2023-03-02T01:04:51.213Z,144
2023-03-02T01:05:52.182Z,143
2023-03-02T01:06:53.210Z,141
2023-03-02T01:07:54.172Z,139
2023-03-02T01:08:55.227Z,138
2023-03-02T01:09:56.206Z,138
2023-03-02T01:10:57.203Z,135
2023-03-02T01:11:58.233Z,136
2023-03-02T01:12:59.184Z,135
2023-03-02T01:14:00.284Z,137
2023-03-02T01:15:01.283Z,141
2023-03-02T01:16:02.291Z,149
2023-03-02T01:17:03.220Z,158
2023-03-02T01:18:04.171Z,162
2023-03-02T01:19:05.319Z,163
2023-03-02T01:20:06.183Z,162
2023-03-02T01:21:07.241Z,160
2023-03-02T01:22:08.291Z,160
2023-03-02T01:23:09.204Z,156
2023-03-02T01:24:10.236Z,158
2023-03-02T01:25:11.351Z,156
2023-03-02T01:26:12.284Z,158
2023-03-02T01:27:13.223Z,157
2023-03-02T01:28:14.232Z,156
2023-03-02T01:29:15.298Z,156
2023-03-02T01:30:16.381Z,161
2023-03-02T01:31:17.211Z,153
2023-03-02T01:32:18.289Z,152
2023-03-02T01:33:19.224Z,156
2023-03-02T01:34:20.224Z,159
2023-03-02T01:35:21.263Z,159
2023-03-02T01:36:22.245Z,158
2023-03-02T01:37:23.233Z,158
2023-03-02T01:38:24.275Z,154
2023-03-02T01:39:25.132Z,158
2023-03-02T01:40:26.264Z,158
2023-03-02T01:41:27.205Z,154
2023-03-02T01:42:28.219Z,157
2023-03-02T01:43:29.302Z,156
2023-03-02T01:44:30.311Z,160
2023-03-02T01:45:31.411Z,158
2023-03-02T01:46:32.545Z,159
2023-03-02T01:47:33.223Z,161
2023-03-02T01:48:34.228Z,155
2023-03-02T01:49:35.264Z,158
2023-03-02T01:50:36.246Z,155
2023-03-02T01:51:37.311Z,155
2023-03-02T01:52:38.233Z,156
2023-03-02T01:53:39.227Z,156
2023-03-02T01:54:40.285Z,161
2023-03-02T01:55:41.222Z,161
2023-03-02T01:56:42.286Z,166
2023-03-02T01:57:43.282Z,173
2023-03-02T01:58:44.221Z,173
2023-03-02T01:59:45.319Z,171
2023-03-02T02:00:46.445Z,170
2023-03-02T02:01:47.316Z,164
2023-03-02T02:02:48.294Z,163
2023-03-02T02:06:57.390Z,151
2023-03-02T02:07:58.277Z,151
2023-03-02T02:08:59.237Z,152
2023-03-02T02:10:00.258Z,156
2023-03-02T02:11:01.263Z,155
2023-03-02T02:12:02.242Z,150
2023-03-02T02:13:03.258Z,149
2023-03-02T02:14:04.300Z,146
2023-03-02T02:15:05.228Z,148
2023-03-02T02:16:06.262Z,150
2023-03-02T02:17:07.339Z,151
2023-03-02T02:18:08.280Z,157
2023-03-02T02:19:09.257Z,157
2023-03-02T02:20:10.273Z,157
2023-03-02T02:21:11.297Z,157
2023-03-02T02:22:12.285Z,159
2023-03-02T02:23:13.224Z,161
2023-03-02T02:24:14.260Z,160
2023-03-02T02:25:15.237Z,160
2023-03-02T02:26:16.294Z,159
2023-03-02T02:27:17.257Z,161
2023-03-02T02:28:18.237Z,157
2023-03-02T02:29:19.301Z,157
2023-03-02T02:30:20.366Z,155
2023-03-02T02:31:21.322Z,156
2023-03-02T02:32:22.437Z,155
2023-03-02T02:33:23.261Z,154
2023-03-02T02:34:24.304Z,152
2023-03-02T02:35:25.293Z,155
2023-03-02T02:36:26.288Z,152
2023-03-02T02:37:27.337Z,151
2023-03-02T02:38:28.220Z,157
2023-03-02T02:39:29.322Z,152
2023-03-02T02:40:30.238Z,157
2023-03-02T02:41:31.244Z,160
2023-03-02T02:42:32.227Z,168
2023-03-02T02:43:33.265Z,171
2023-03-02T02:44:34.322Z,168
2023-03-02T02:45:35.363Z,168
2023-03-02T02:46:36.282Z,166
2023-03-02T02:47:37.236Z,161
2023-03-02T02:48:38.246Z,165
2023-03-02T02:49:39.248Z,163
2023-03-02T02:50:40.336Z,161
2023-03-02T02:51:41.300Z,161
2023-03-02T02:52:42.265Z,156
2023-03-02T02:53:43.282Z,149
2023-03-02T02:54:44.256Z,149
2023-03-02T02:55:45.379Z,146
2023-03-02T02:56:46.277Z,148
2023-03-02T02:57:47.257Z,149
2023-03-02T02:58:48.297Z,150
2023-03-02T02:59:49.238Z,154
2023-03-02T03:00:50.428Z,152
2023-03-02T03:01:51.341Z,156
2023-03-02T03:02:52.319Z,151
2023-03-02T03:03:53.321Z,156
2023-03-02T03:04:54.324Z,159
2023-03-02T03:05:55.318Z,155
2023-03-02T03:06:56.376Z,149
2023-03-02T03:07:59.879Z,144
2023-03-02T03:09:01.380Z,144
2023-03-02T03:10:02.387Z,140
2023-03-02T03:11:03.284Z,147
2023-03-02T03:12:04.317Z,147
2023-03-02T03:13:05.293Z,148
2023-03-02T03:14:06.280Z,157
2023-03-02T03:15:07.283Z,155
2023-03-02T03:16:08.284Z,156
2023-03-02T03:17:09.478Z,151
2023-03-02T03:18:10.283Z,154
2023-03-02T03:19:11.276Z,156
2023-03-02T03:20:12.314Z,151
2023-03-02T03:21:13.292Z,150
2023-03-02T03:22:14.321Z,149
2023-03-02T03:23:15.235Z,149
2023-03-02T03:24:16.280Z,145
2023-03-02T03:25:17.332Z,148
2023-03-02T03:26:18.212Z,145
2023-03-02T03:27:19.295Z,144
2023-03-02T03:28:20.271Z,147
2023-03-02T03:29:21.291Z,146
2023-03-02T03:30:22.263Z,146
2023-03-02T03:31:23.329Z,145
2023-03-02T03:32:24.410Z,147
2023-03-02T03:33:25.312Z,151
2023-03-02T03:34:26.270Z,150
2023-03-02T03:35:27.344Z,152
2023-03-02T03:36:28.295Z,156
2023-03-02T03:37:29.467Z,157
2023-03-02T03:38:30.341Z,155
2023-03-02T03:39:31.282Z,151
2023-03-02T03:40:32.276Z,149
2023-03-02T03:41:33.278Z,148
2023-03-02T03:42:34.296Z,145
2023-03-02T03:43:35.228Z,144
2023-03-02T03:44:36.308Z,141
2023-03-02T03:45:37.231Z,143
2023-03-02T03:46:38.427Z,143
2023-03-02T03:47:39.286Z,143
2023-03-02T03:48:40.259Z,145
2023-03-02T03:49:41.270Z,145
2023-03-02T03:50:42.295Z,145
2023-03-02T03:51:43.268Z,148
2023-03-02T03:52:44.364Z,148
2023-03-02T03:53:45.326Z,148
2023-03-02T03:54:46.347Z,149
2023-03-02T03:55:47.288Z,154
2023-03-02T03:56:48.306Z,151
2023-03-02T03:57:49.286Z,149
2023-03-02T03:58:50.367Z,149
2023-03-02T03:59:51.307Z,148
2023-03-02T04:00:52.367Z,149
2023-03-02T04:01:53.308Z,150
2023-03-02T04:02:54.418Z,145
2023-03-02T04:03:55.304Z,143
2023-03-02T04:04:56.304Z,147
2023-03-02T04:05:57.345Z,148
2023-03-02T04:06:58.278Z,148
2023-03-02T04:07:59.290Z,145
2023-03-02T04:09:00.264Z,144
2023-03-02T04:10:01.313Z,144
2023-03-02T04:11:02.288Z,143
2023-03-02T04:12:03.337Z,147
2023-03-02T04:13:04.284Z,145
2023-03-02T04:14:05.283Z,138
2023-03-02T04:15:06.332Z,136
2023-03-02T04:16:07.392Z,138
2023-03-02T04:17:08.328Z,138
2023-03-02T04:18:09.273Z,136
2023-03-02T04:19:10.314Z,140
2023-03-02T04:20:11.422Z,146
2023-03-02T04:21:12.312Z,137
2023-03-02T04:22:13.271Z,134
2023-03-02T04:23:14.304Z,139
2023-03-02T04:24:15.271Z,141
2023-03-02T04:25:16.322Z,138
2023-03-02T04:26:17.376Z,136
2023-03-02T04:27:18.305Z,135
2023-03-02T04:28:19.294Z,133
2023-03-02T04:29:20.286Z,127
2023-03-02T04:30:21.270Z,128
2023-03-02T04:31:22.367Z,129
2023-03-02T04:32:23.380Z,128
2023-03-02T04:33:24.294Z,127
2023-03-02T04:34:25.331Z,134
2023-03-02T04:35:26.456Z,136
2023-03-02T04:36:27.374Z,136
2023-03-02T04:37:28.299Z,135
2023-03-02T04:38:29.298Z,138
2023-03-02T04:39:30.434Z,137
2023-03-02T04:40:31.316Z,139
2023-03-02T04:41:32.321Z,139
2023-03-02T04:42:33.302Z,138
2023-03-02T04:43:34.296Z,143
2023-03-02T04:44:35.336Z,141
2023-03-02T04:45:36.293Z,146
2023-03-02T04:46:37.396Z,146
2023-03-02T04:47:38.343Z,146
2023-03-02T04:48:39.317Z,144
2023-03-02T04:49:40.298Z,145
2023-03-02T04:50:41.358Z,138
2023-03-02T04:51:42.338Z,138
2023-03-02T04:52:43.366Z,138
2023-03-02T04:53:44.278Z,142
2023-03-02T04:54:45.341Z,136
2023-03-02T04:55:46.359Z,137
2023-03-02T04:56:47.346Z,145
2023-03-02T04:57:48.401Z,144
2023-03-02T04:58:49.280Z,144
2023-03-02T04:59:50.306Z,146
2023-03-02T05:00:51.298Z,147
2023-03-02T05:01:52.342Z,148
2023-03-02T05:02:53.434Z,151
2023-03-02T05:03:54.375Z,152
2023-03-02T05:04:55.462Z,144
2023-03-02T05:05:56.308Z,140
2023-03-02T05:06:57.328Z,145
2023-03-02T05:07:58.323Z,147
2023-03-02T05:08:59.352Z,143
2023-03-02T05:10:00.327Z,141
2023-03-02T05:11:01.338Z,143
2023-03-02T05:12:02.367Z,141
2023-03-02T05:13:03.356Z,139
2023-03-02T05:14:04.318Z,138
2023-03-02T05:15:05.353Z,135
2023-03-02T05:16:06.441Z,135
2023-03-02T05:17:07.400Z,134
2023-03-02T05:18:08.323Z,134
2023-03-02T05:19:09.339Z,133
2023-03-02T05:20:10.336Z,133
2023-03-02T05:21:11.365Z,130
2023-03-02T05:22:12.421Z,128
2023-03-02T05:23:13.425Z,132
2023-03-02T05:24:14.364Z,134
2023-03-02T05:25:15.360Z,133
2023-03-02T05:26:16.360Z,130
2023-03-02T05:27:17.321Z,132
2023-03-02T05:28:18.362Z,132
2023-03-02T05:29:19.397Z,134
2023-03-02T05:30:20.360Z,136
2023-03-02T05:31:21.451Z,136
2023-03-02T05:32:22.384Z,137
2023-03-02T05:33:23.366Z,136
2023-03-02T05:34:24.383Z,137
2023-03-02T05:35:25.376Z,140
2023-03-02T05:36:26.341Z,141
2023-03-02T05:37:27.386Z,140
2023-03-02T05:38:28.260Z,140
2023-03-02T05:39:29.419Z,148
2023-03-02T05:40:30.538Z,147
2023-03-02T05:41:31.266Z,149
2023-03-02T05:42:32.438Z,152
2023-03-02T05:43:33.360Z,156
2023-03-02T05:44:34.301Z,151
2023-03-02T05:45:35.286Z,149
2023-03-02T05:46:36.623Z,151
2023-03-02T05:47:37.376Z,149
2023-03-02T05:48:38.438Z,149
2023-03-02T05:49:39.330Z,157
2023-03-02T05:50:40.323Z,152
2023-03-02T05:51:41.419Z,150
2023-03-02T05:52:42.325Z,155
2023-03-02T05:53:43.414Z,162
2023-03-02T05:54:44.280Z,165
2023-03-02T05:55:45.379Z,174
2023-03-02T05:56:48.327Z,178
2023-03-02T05:57:48.303Z,182
2023-03-02T05:58:49.438Z,182
2023-03-02T05:59:50.324Z,171
2023-03-02T06:00:51.258Z,-1
2023-03-02T06:01:52.387Z,163
2023-03-02T06:02:53.415Z,158
2023-03-02T06:03:54.405Z,160
2023-03-02T06:04:55.306Z,161
2023-03-02T06:05:56.364Z,157
2023-03-02T06:06:57.490Z,158
2023-03-02T06:07:58.504Z,160
2023-03-02T06:08:59.817Z,157
2023-03-02T06:10:01.357Z,159
2023-03-02T06:11:02.378Z,158
2023-03-02T06:12:03.546Z,158
2023-03-02T06:13:05.300Z,162
2023-03-02T06:14:06.363Z,164
2023-03-02T06:15:47.312Z,158
2023-03-02T06:16:48.987Z,157
2023-03-02T06:17:51.164Z,157
2023-03-02T06:18:54.290Z,157
2023-03-02T06:19:57.004Z,156
2023-03-02T06:20:58.339Z,154
2023-03-02T06:21:59.999Z,154
2023-03-02T06:23:02.339Z,151
2023-03-02T06:24:03.331Z,149
2023-03-02T06:25:04.495Z,154
2023-03-02T06:26:05.910Z,155
2023-03-02T06:27:07.368Z,151
2023-03-02T06:28:08.824Z,144
2023-03-02T06:29:10.314Z,137
2023-03-02T06:30:11.338Z,139
2023-03-02T06:31:12.298Z,140
2023-03-02T06:32:13.508Z,163
2023-03-02T06:33:14.504Z,216
2023-03-02T06:34:15.620Z,224
2023-03-02T06:35:16.484Z,212
2023-03-02T06:36:18.987Z,200
2023-03-02T06:37:22.404Z,191
2023-03-02T06:38:23.329Z,199
2023-03-02T06:39:24.340Z,184
2023-03-02T06:40:25.320Z,177
2023-03-02T06:41:26.381Z,161
2023-03-02T06:42:27.356Z,-1
2023-03-02T06:43:28.359Z,151
2023-03-02T06:44:29.330Z,181
2023-03-02T06:45:30.505Z,196
2023-03-02T06:46:31.854Z,187
2023-03-02T06:47:32.301Z,157
2023-03-02T06:48:33.391Z,165
2023-03-02T06:49:34.385Z,188
2023-03-02T06:50:35.357Z,192
2023-03-02T06:51:36.399Z,192
2023-03-02T06:52:37.340Z,198
2023-03-02T06:53:38.273Z,209
2023-03-02T06:54:39.342Z,206
2023-03-02T06:55:40.380Z,204
2023-03-02T06:56:41.351Z,203
2023-03-02T06:57:42.358Z,201
2023-03-02T06:58:43.310Z,194
2023-03-02T06:59:44.371Z,198
2023-03-02T07:00:45.282Z,200
2023-03-02T07:01:46.420Z,188
2023-03-02T07:02:47.362Z,174
2023-03-02T07:03:48.422Z,174
2023-03-02T07:04:49.341Z,170
2023-03-02T07:05:50.453Z,173
2023-03-02T07:06:51.436Z,173
2023-03-02T07:07:52.361Z,172
2023-03-02T07:08:53.401Z,175
2023-03-02T07:09:54.367Z,177
2023-03-02T07:10:55.325Z,179
2023-03-02T07:11:56.393Z,182
2023-03-02T07:12:57.356Z,180
2023-03-02T07:13:58.393Z,180
2023-03-02T07:14:59.376Z,180
2023-03-02T07:16:00.374Z,177
2023-03-02T07:17:01.436Z,181
2023-03-02T07:18:02.394Z,183
2023-03-02T07:19:03.339Z,180
2023-03-02T07:20:04.473Z,174
2023-03-02T07:21:05.505Z,172
2023-03-02T07:22:06.334Z,174
2023-03-02T07:23:07.376Z,177
2023-03-02T07:24:08.375Z,181
2023-03-02T07:25:09.410Z,183
2023-03-02T07:26:10.411Z,189
2023-03-02T07:27:11.392Z,182
2023-03-02T07:28:12.410Z,184
2023-03-02T07:29:13.454Z,184
2023-03-02T07:30:14.414Z,201
2023-03-02T07:31:15.474Z,194
2023-03-02T07:32:16.403Z,196
2023-03-02T07:33:17.371Z,200
2023-03-02T07:34:18.400Z,196
2023-03-02T07:35:19.471Z,192
2023-03-02T07:36:20.428Z,195
2023-03-02T07:37:21.380Z,193
2023-03-02T07:38:22.372Z,198
2023-03-02T07:39:23.373Z,193
2023-03-02T07:40:24.400Z,189
2023-03-02T07:41:25.338Z,185
2023-03-02T07:42:26.419Z,185
2023-03-02T07:43:27.404Z,182
2023-03-02T07:44:28.382Z,181
2023-03-02T07:45:29.334Z,172
2023-03-02T07:46:30.526Z,174
2023-03-02T07:47:31.675Z,173
2023-03-02T07:48:32.376Z,176
2023-03-02T07:49:33.415Z,172
2023-03-02T07:50:34.419Z,173
2023-03-02T07:51:35.521Z,172
2023-03-02T07:52:36.314Z,173
2023-03-02T07:53:37.479Z,170
2023-03-02T07:54:38.393Z,169
2023-03-02T07:55:39.354Z,170
2023-03-02T07:56:40.400Z,169
2023-03-02T07:57:41.416Z,166
2023-03-02T07:58:42.416Z,167
2023-03-02T07:59:43.418Z,167
2023-03-02T08:00:44.417Z,165
2023-03-02T08:01:45.439Z,166
2023-03-02T08:02:46.519Z,163
2023-03-02T08:03:47.443Z,159
2023-03-02T08:04:48.455Z,157
2023-03-02T08:05:49.374Z,160
2023-03-02T08:06:50.439Z,159
2023-03-02T08:07:51.457Z,158
2023-03-02T08:08:52.454Z,159
2023-03-02T08:09:53.450Z,157
2023-03-02T08:10:54.375Z,151
2023-03-02T08:11:55.396Z,146
2023-03-02T08:12:56.380Z,147
2023-03-02T08:13:57.364Z,148
2023-03-02T08:14:58.423Z,143
2023-03-02T08:15:59.440Z,141
2023-03-02T08:17:00.435Z,140
2023-03-02T08:18:01.416Z,139
2023-03-02T08:19:02.438Z,139
2023-03-02T08:20:03.420Z,137
2023-03-02T08:21:04.538Z,134
2023-03-02T08:22:05.404Z,130
2023-03-02T08:23:06.438Z,129
2023-03-02T08:24:07.477Z,128
2023-03-02T08:25:08.456Z,125
2023-03-02T08:26:11.713Z,122
2023-03-02T08:27:10.421Z,122
2023-03-02T08:28:11.438Z,126
2023-03-02T08:29:12.400Z,126
2023-03-02T08:30:13.445Z,124
2023-03-02T08:31:14.448Z,124
2023-03-02T08:32:15.454Z,123
2023-03-02T08:33:16.478Z,124
2023-03-02T08:34:17.418Z,124
2023-03-02T08:35:18.514Z,122
2023-03-02T08:36:19.439Z,124
2023-03-02T08:37:20.646Z,121
2023-03-02T08:38:21.526Z,118
2023-03-02T08:39:22.665Z,117
2023-03-02T08:40:23.400Z,117
2023-03-02T08:41:24.387Z,116
2023-03-02T08:42:25.498Z,114
2023-03-02T08:43:26.405Z,114
2023-03-02T08:44:27.398Z,113
2023-03-02T08:45:28.459Z,111
2023-03-02T08:46:29.414Z,110
2023-03-02T08:47:30.356Z,114
2023-03-02T08:48:31.924Z,114
2023-03-02T08:49:33.492Z,114
2023-03-02T08:50:34.395Z,114
2023-03-02T08:51:35.655Z,112
2023-03-02T08:52:36.449Z,108
2023-03-02T08:53:37.435Z,107
2023-03-02T08:54:38.492Z,106
2023-03-02T08:55:39.400Z,111
2023-03-02T08:56:40.435Z,113
2023-03-02T08:57:41.476Z,114
2023-03-02T08:58:42.373Z,111
2023-03-02T08:59:43.393Z,108
2023-03-02T09:00:44.434Z,106
2023-03-02T09:01:45.477Z,102
2023-03-02T09:02:46.441Z,102
2023-03-02T09:03:47.452Z,105
2023-03-02T09:04:48.520Z,108
2023-03-02T09:05:49.494Z,112
2023-03-02T09:06:50.452Z,115
2023-03-02T09:07:51.427Z,116
2023-03-02T09:08:52.394Z,116
2023-03-02T09:09:53.393Z,118
2023-03-02T09:10:54.473Z,117
2023-03-02T09:11:55.559Z,119
2023-03-02T09:12:56.400Z,119
2023-03-02T09:13:57.392Z,118
2023-03-02T09:15:01.472Z,118
2023-03-02T09:16:02.473Z,116
2023-03-02T09:17:03.392Z,114
2023-03-02T09:18:04.453Z,122
2023-03-02T09:19:05.431Z,123
2023-03-02T09:20:06.475Z,117
2023-03-02T09:21:07.473Z,113
2023-03-02T09:22:08.416Z,114
2023-03-02T09:23:09.444Z,112
2023-03-02T09:24:10.434Z,107
2023-03-02T09:25:11.414Z,108
2023-03-02T09:26:12.456Z,112
2023-03-02T09:27:13.414Z,111
2023-03-02T09:28:14.416Z,111
2023-03-02T09:29:15.442Z,112
2023-03-02T09:30:16.482Z,108
2023-03-02T09:31:17.521Z,103
2023-03-02T09:32:18.611Z,100
2023-03-02T09:33:19.416Z,100
2023-03-02T09:34:20.435Z,100
2023-03-02T09:35:21.436Z,97
2023-03-02T09:36:22.459Z,96
2023-03-02T09:37:23.436Z,97
2023-03-02T09:38:24.579Z,97
2023-03-02T09:39:25.458Z,95
2023-03-02T09:40:26.489Z,99
2023-03-02T09:41:27.480Z,96
2023-03-02T09:42:38.250Z,90
2023-03-02T09:43:29.526Z,88
2023-03-02T09:44:30.434Z,86
2023-03-02T09:45:32.002Z,86
2023-03-02T09:46:33.475Z,90
2023-03-02T09:47:37.131Z,88
2023-03-02T09:48:38.445Z,83
2023-03-02T09:49:39.397Z,85
2023-03-02T09:50:40.449Z,85
2023-03-02T09:51:41.458Z,84
2023-03-02T09:52:42.399Z,81
2023-03-02T09:53:43.376Z,79
2023-03-02T09:54:44.413Z,80
2023-03-02T09:55:45.398Z,81
2023-03-02T09:56:46.378Z,79
2023-03-02T09:57:47.576Z,74
2023-03-02T09:58:48.376Z,75
2023-03-02T09:59:49.416Z,77
2023-03-02T10:00:50.494Z,74
2023-03-02T10:01:51.437Z,73
2023-03-02T10:02:52.525Z,71
2023-03-02T10:03:53.587Z,68
2023-03-02T10:04:54.713Z,66
2023-03-02T10:05:55.443Z,67
2023-03-02T10:06:56.446Z,67
2023-03-02T10:07:59.335Z,66
2023-03-02T10:08:58.513Z,67
2023-03-02T10:09:59.455Z,67
2023-03-02T10:11:00.470Z,67
2023-03-02T10:12:01.494Z,64
2023-03-02T10:13:02.483Z,66
2023-03-02T10:14:03.436Z,66
2023-03-02T10:15:04.495Z,62
2023-03-02T10:16:05.477Z,63
2023-03-02T10:17:06.500Z,64
2023-03-02T10:18:07.456Z,61
2023-03-02T10:19:08.497Z,61
2023-03-02T10:20:09.523Z,59
2023-03-02T10:21:10.535Z,58
2023-03-02T10:22:11.456Z,56
2023-03-02T10:23:12.435Z,55
2023-03-02T10:24:13.541Z,53
2023-03-02T10:25:14.534Z,55
2023-03-02T10:26:15.491Z,52
2023-03-02T10:27:16.454Z,49
2023-03-02T10:28:17.481Z,48
2023-03-02T10:29:18.455Z,51
2023-03-02T10:30:19.474Z,51
2023-03-02T10:31:20.579Z,52
2023-03-02T10:32:21.511Z,51
2023-03-02T10:33:22.506Z,52
2023-03-02T10:34:23.472Z,55
2023-03-02T10:35:24.503Z,51
2023-03-02T10:36:25.473Z,50
2023-03-02T10:37:26.457Z,50
2023-03-02T10:38:27.534Z,55
2023-03-02T10:39:28.544Z,56
2023-03-02T10:40:29.492Z,57
2023-03-02T10:41:30.504Z,55
2023-03-02T10:42:32.127Z,58
2023-03-02T10:43:33.477Z,56
2023-03-02T10:44:34.414Z,53
2023-03-02T10:45:35.478Z,51
2023-03-02T10:46:36.813Z,53
2023-03-02T10:47:37.507Z,55
2023-03-02T10:48:40.831Z,53
2023-03-02T10:49:39.510Z,53
2023-03-02T10:50:40.499Z,53
2023-03-02T10:51:41.433Z,55
2023-03-02T10:52:51.245Z,55
2023-03-02T10:53:43.502Z,57
2023-03-02T10:54:44.548Z,56
2023-03-02T10:55:45.438Z,57
2023-03-02T10:56:46.473Z,55
2023-03-02T10:57:47.512Z,59
2023-03-02T10:58:48.491Z,58
2023-03-02T10:59:49.542Z,56
2023-03-02T11:00:50.504Z,57
2023-03-02T11:01:51.505Z,55
2023-03-02T11:02:52.512Z,53
2023-03-02T11:03:53.513Z,52
2023-03-02T11:04:56.992Z,52
2023-03-02T11:05:55.500Z,52
2023-03-02T11:06:56.477Z,53
2023-03-02T11:07:57.438Z,51
2023-03-02T11:09:01.427Z,52
2023-03-02T11:10:02.576Z,52
2023-03-02T11:11:03.502Z,53
2023-03-02T11:12:04.640Z,53
2023-03-02T11:13:05.515Z,51
2023-03-02T11:14:06.458Z,50
2023-03-02T11:15:07.539Z,52
2023-03-02T11:16:08.538Z,52
2023-03-02T11:17:09.399Z,51
2023-03-02T11:18:10.455Z,52
2023-03-02T11:19:11.562Z,52
2023-03-02T11:20:12.575Z,51
2023-03-02T11:21:13.532Z,52
2023-03-02T11:22:14.419Z,52
2023-03-02T11:23:15.433Z,52
2023-03-02T11:24:16.563Z,52
2023-03-02T11:25:17.650Z,52
2023-03-02T11:26:18.517Z,51
2023-03-02T11:27:19.523Z,50
2023-03-02T11:28:20.495Z,50
2023-03-02T11:29:22.711Z,50
2023-03-02T11:30:22.571Z,49
2023-03-02T11:31:23.658Z,47
2023-03-02T11:32:24.508Z,46
2023-03-02T11:33:25.549Z,47
2023-03-02T11:34:26.493Z,47
2023-03-02T11:35:27.614Z,48
2023-03-02T11:36:28.534Z,49
2023-03-02T11:37:29.491Z,48
2023-03-02T11:38:30.455Z,48
2023-03-02T11:39:31.474Z,49
2023-03-02T11:40:32.550Z,50
2023-03-02T11:41:33.870Z,51
2023-03-02T11:42:34.583Z,50
2023-03-02T11:43:35.499Z,50
2023-03-02T11:44:36.514Z,51
2023-03-02T11:45:37.482Z,49
2023-03-02T11:46:38.648Z,48
2023-03-02T11:47:39.536Z,49
2023-03-02T11:48:40.502Z,49
2023-03-02T11:49:41.523Z,48
2023-03-02T11:50:42.497Z,48
2023-03-02T11:51:47.369Z,48
2023-03-02T11:52:44.537Z,49
2023-03-02T11:53:45.521Z,50
2023-03-02T11:54:46.464Z,48
2023-03-02T11:55:47.596Z,48
2023-03-02T11:56:48.486Z,48
2023-03-02T11:57:49.528Z,46
2023-03-02T11:58:50.539Z,46
2023-03-02T11:59:51.517Z,46
2023-03-02T12:00:52.550Z,48
2023-03-02T12:01:53.617Z,49
2023-03-02T12:02:54.473Z,47
2023-03-02T12:03:55.478Z,45
2023-03-02T12:04:56.521Z,45
2023-03-02T12:05:57.508Z,46
2023-03-02T12:06:58.546Z,45
2023-03-02T12:07:59.523Z,45
2023-03-02T12:09:00.617Z,47
2023-03-02T12:10:01.518Z,46
2023-03-02T12:11:02.864Z,47
2023-03-02T12:12:04.884Z,47
2023-03-02T12:13:04.600Z,48
2023-03-02T12:14:05.560Z,47
2023-03-02T12:15:06.873Z,48
2023-03-02T12:16:07.584Z,48
2023-03-02T12:17:08.533Z,48
2023-03-02T12:18:09.595Z,47
2023-03-02T12:19:10.558Z,48
2023-03-02T12:20:11.517Z,47
2023-03-02T12:21:12.484Z,48
2023-03-02T12:22:13.501Z,48
2023-03-02T12:23:14.554Z,48
2023-03-02T12:24:15.540Z,48
2023-03-02T12:25:16.538Z,48
2023-03-02T12:26:17.554Z,48
2023-03-02T12:27:18.578Z,47
2023-03-02T12:28:19.613Z,48
2023-03-02T12:29:20.508Z,47
2023-03-02T12:30:21.709Z,47
2023-03-02T12:31:22.584Z,47
2023-03-02T12:32:23.544Z,47
2023-03-02T12:33:24.566Z,46
2023-03-02T12:34:25.556Z,47
2023-03-02T12:35:26.654Z,47
2023-03-02T12:36:27.477Z,47
2023-03-02T12:37:28.585Z,46
2023-03-02T12:38:29.633Z,48
2023-03-02T12:39:30.487Z,49
2023-03-02T12:40:31.543Z,48
2023-03-02T12:41:32.568Z,47
2023-03-02T12:42:33.659Z,46
2023-03-02T12:43:34.527Z,46
2023-03-02T12:44:35.481Z,47
2023-03-02T12:45:36.597Z,47
2023-03-02T12:46:37.640Z,47
2023-03-02T12:47:38.673Z,47
2023-03-02T12:48:39.926Z,46
2023-03-02T12:49:40.607Z,46
2023-03-02T12:50:41.539Z,42
2023-03-02T12:51:42.640Z,45
2023-03-02T12:52:43.638Z,44
2023-03-02T12:53:44.562Z,44
2023-03-02T12:54:45.575Z,44
2023-03-02T12:55:46.594Z,44
2023-03-02T12:56:47.548Z,44
2023-03-02T12:57:48.573Z,42
2023-03-02T12:58:49.584Z,41
2023-03-02T12:59:50.560Z,41
2023-03-02T13:00:51.549Z,41
2023-03-02T13:01:52.529Z,42
2023-03-02T13:02:53.567Z,42
2023-03-02T13:03:54.634Z,41
2023-03-02T13:04:55.561Z,41
2023-03-02T13:05:56.584Z,40
2023-03-02T13:06:57.539Z,41
2023-03-02T13:07:58.545Z,40
2023-03-02T13:08:59.613Z,39
2023-03-02T13:10:00.661Z,41
2023-03-02T13:11:01.589Z,40
2023-03-02T13:12:02.603Z,40
2023-03-02T13:13:03.531Z,39
2023-03-02T13:14:04.560Z,39
2023-03-02T13:15:05.536Z,40
2023-03-02T13:16:06.714Z,39
2023-03-02T13:17:07.658Z,39
2023-03-02T13:18:08.556Z,39
2023-03-02T13:19:09.584Z,40
2023-03-02T13:20:10.579Z,38
2023-03-02T13:21:11.600Z,38
2023-03-02T13:22:12.576Z,39
2023-03-02T13:23:13.561Z,37
2023-03-02T13:24:14.599Z,38
2023-03-02T13:25:15.556Z,38
2023-03-02T13:26:16.557Z,39
2023-03-02T13:27:17.791Z,37
2023-03-02T13:28:18.589Z,37
2023-03-02T13:29:19.617Z,37
2023-03-02T13:30:20.604Z,37
2023-03-02T13:31:24.181Z,35
2023-03-02T13:32:27.809Z,35
2023-03-02T13:33:28.563Z,34
2023-03-02T13:34:29.609Z,35
2023-03-02T13:35:30.539Z,35
2023-03-02T13:36:31.950Z,34
2023-03-02T13:37:34.530Z,34
2023-03-02T13:38:36.595Z,34
2023-03-02T13:39:37.597Z,35
2023-03-02T13:40:38.593Z,34
2023-03-02T13:41:39.554Z,35
2023-03-02T13:42:40.667Z,35
2023-03-02T13:43:41.554Z,34
2023-03-02T13:44:42.614Z,33
2023-03-02T13:45:43.628Z,31
2023-03-02T13:46:44.617Z,31
2023-03-02T13:47:45.613Z,30
2023-03-02T13:48:46.659Z,31
2023-03-02T13:49:47.591Z,33
2023-03-02T13:50:48.633Z,31
2023-03-02T13:51:49.577Z,31
2023-03-02T13:52:50.557Z,31
2023-03-02T13:53:51.553Z,31
2023-03-02T13:54:52.552Z,31
2023-03-02T13:55:53.610Z,31
2023-03-02T13:56:54.557Z,34
2023-03-02T13:57:55.615Z,33
2023-03-02T13:58:56.570Z,35
2023-03-02T13:59:57.520Z,34
2023-03-02T14:00:58.635Z,34
2023-03-02T14:01:59.563Z,34
2023-03-02T14:03:00.602Z,36
2023-03-02T14:04:01.638Z,36
2023-03-02T14:05:02.622Z,37
2023-03-02T14:06:03.549Z,37
2023-03-02T14:07:04.570Z,36
2023-03-02T14:08:05.538Z,36
2023-03-02T14:09:06.515Z,36
2023-03-02T14:10:07.599Z,36
2023-03-02T14:11:08.607Z,36
2023-03-02T14:12:09.534Z,37
2023-03-02T14:13:10.666Z,37
2023-03-02T14:14:11.581Z,38